sensor_id;sensor_type;location;lat;lon;timestamp;P1;durP1;ratioP1;P2;durP2;ratioP2
11247;SDS011;5681;53.316;13.950;2022-09-01T00:00:02;1.60;;;1.08;;
11247;SDS011;5681;53.316;13.950;2022-09-01T00:02:33;2.58;;;1.23;;
11247;SDS011;5681;53.316;13.950;2022-09-01T00:05:00;2.95;;;1.30;;
11247;SDS011;5681;53.316;13.950;2022-09-01T00:07:27;2.25;;;1.00;;
11247;SDS011;5681;53.316;13.950;2022-09-01T00:09:55;3.70;;;1.30;;
11247;SDS011;5681;53.316;13.950;2022-09-01T00:12:21;3.90;;;1.20;;
11247;SDS011;5681;53.316;13.950;2022-09-01T00:14:49;1.92;;;1.15;;
11247;SDS011;5681;53.316;13.950;2022-09-01T00:17:16;2.75;;;1.30;;
11247;SDS011;5681;53.316;13.950;2022-09-01T00:19:43;1.52;;;1.02;;
11247;SDS011;5681;53.316;13.950;2022-09-01T00:22:10;2.08;;;1.25;;
11247;SDS011;5681;53.316;13.950;2022-09-01T00:24:36;1.98;;;1.15;;
11247;SDS011;5681;53.316;13.950;2022-09-01T00:27:03;1.90;;;1.10;;
11247;SDS011;5681;53.316;13.950;2022-09-01T00:29:29;1.45;;;0.95;;
11247;SDS011;5681;53.316;13.950;2022-09-01T00:31:55;2.70;;;1.10;;
11247;SDS011;5681;53.316;13.950;2022-09-01T00:34:22;3.50;;;1.17;;
11247;SDS011;5681;53.316;13.950;2022-09-01T00:36:49;2.63;;;1.20;;
11247;SDS011;5681;53.316;13.950;2022-09-01T00:39:16;1.55;;;1.05;;
11247;SDS011;5681;53.316;13.950;2022-09-01T00:41:42;1.60;;;1.15;;
11247;SDS011;5681;53.316;13.950;2022-09-01T00:44:11;4.05;;;1.13;;
11247;SDS011;5681;53.316;13.950;2022-09-01T00:46:41;1.33;;;0.95;;
11247;SDS011;5681;53.316;13.950;2022-09-01T00:49:10;2.40;;;0.90;;
11247;SDS011;5681;53.316;13.950;2022-09-01T00:51:40;1.48;;;1.30;;
11247;SDS011;5681;53.316;13.950;2022-09-01T00:54:10;3.15;;;1.42;;
11247;SDS011;5681;53.316;13.950;2022-09-01T00:56:39;2.35;;;1.20;;
11247;SDS011;5681;53.316;13.950;2022-09-01T00:59:06;2.25;;;1.20;;
11247;SDS011;5681;53.316;13.950;2022-09-01T01:01:33;2.67;;;1.10;;
11247;SDS011;5681;53.316;13.950;2022-09-01T01:04:00;2.25;;;1.05;;
11247;SDS011;5681;53.316;13.950;2022-09-01T01:06:27;3.00;;;1.08;;
11247;SDS011;5681;53.316;13.950;2022-09-01T01:08:57;2.22;;;1.20;;
11247;SDS011;5681;53.316;13.950;2022-09-01T01:11:26;1.45;;;1.17;;
11247;SDS011;5681;53.316;13.950;2022-09-01T01:13:57;1.27;;;1.10;;
11247;SDS011;5681;53.316;13.950;2022-09-01T01:16:34;3.00;;;0.95;;
11247;SDS011;5681;53.316;13.950;2022-09-01T01:19:01;3.30;;;1.33;;
11247;SDS011;5681;53.316;13.950;2022-09-01T01:21:34;2.92;;;1.08;;
11247;SDS011;5681;53.316;13.950;2022-09-01T01:24:27;2.15;;;1.00;;
11247;SDS011;5681;53.316;13.950;2022-09-01T01:26:55;2.05;;;1.20;;
11247;SDS011;5681;53.316;13.950;2022-09-01T01:29:24;2.40;;;1.10;;
11247;SDS011;5681;53.316;13.950;2022-09-01T01:31:52;4.00;;;1.55;;
11247;SDS011;5681;53.316;13.950;2022-09-01T01:34:19;2.17;;;1.25;;
11247;SDS011;5681;53.316;13.950;2022-09-01T01:36:46;1.27;;;1.13;;
11247;SDS011;5681;53.316;13.950;2022-09-01T01:39:15;1.60;;;1.10;;
11247;SDS011;5681;53.316;13.950;2022-09-01T01:41:44;1.98;;;1.13;;
11247;SDS011;5681;53.316;13.950;2022-09-01T01:44:13;1.73;;;1.10;;
11247;SDS011;5681;53.316;13.950;2022-09-01T01:46:41;1.08;;;0.90;;
11247;SDS011;5681;53.316;13.950;2022-09-01T01:49:09;1.27;;;0.90;;
11247;SDS011;5681;53.316;13.950;2022-09-01T01:51:37;2.65;;;1.23;;
11247;SDS011;5681;53.316;13.950;2022-09-01T01:54:04;1.50;;;1.25;;
11247;SDS011;5681;53.316;13.950;2022-09-01T01:56:31;1.45;;;1.20;;
11247;SDS011;5681;53.316;13.950;2022-09-01T01:59:03;2.45;;;1.10;;
11247;SDS011;5681;53.316;13.950;2022-09-01T02:01:31;1.33;;;1.00;;
11247;SDS011;5681;53.316;13.950;2022-09-01T02:03:58;1.55;;;1.17;;
11247;SDS011;5681;53.316;13.950;2022-09-01T02:06:31;1.52;;;1.23;;
11247;SDS011;5681;53.316;13.950;2022-09-01T02:08:58;1.95;;;1.30;;
11247;SDS011;5681;53.316;13.950;2022-09-01T02:11:27;1.13;;;1.02;;
11247;SDS011;5681;53.316;13.950;2022-09-01T02:13:57;2.58;;;1.40;;
11247;SDS011;5681;53.316;13.950;2022-09-01T02:16:27;2.88;;;1.20;;
11247;SDS011;5681;53.316;13.950;2022-09-01T02:18:56;4.07;;;1.20;;
11247;SDS011;5681;53.316;13.950;2022-09-01T02:21:24;2.70;;;1.20;;
11247;SDS011;5681;53.316;13.950;2022-09-01T02:23:51;3.03;;;1.48;;
11247;SDS011;5681;53.316;13.950;2022-09-01T02:26:23;2.13;;;1.25;;
11247;SDS011;5681;53.316;13.950;2022-09-01T02:28:55;1.98;;;1.27;;
11247;SDS011;5681;53.316;13.950;2022-09-01T02:31:27;1.83;;;1.17;;
11247;SDS011;5681;53.316;13.950;2022-09-01T02:33:53;1.30;;;1.20;;
11247;SDS011;5681;53.316;13.950;2022-09-01T02:36:20;1.45;;;1.15;;
11247;SDS011;5681;53.316;13.950;2022-09-01T02:38:47;1.98;;;1.20;;
11247;SDS011;5681;53.316;13.950;2022-09-01T02:41:15;3.13;;;1.30;;
11247;SDS011;5681;53.316;13.950;2022-09-01T02:43:44;1.25;;;1.15;;
11247;SDS011;5681;53.316;13.950;2022-09-01T02:46:11;2.25;;;1.20;;
11247;SDS011;5681;53.316;13.950;2022-09-01T02:48:41;1.55;;;1.30;;
11247;SDS011;5681;53.316;13.950;2022-09-01T02:51:10;2.03;;;1.10;;
11247;SDS011;5681;53.316;13.950;2022-09-01T02:53:38;1.40;;;1.17;;
11247;SDS011;5681;53.316;13.950;2022-09-01T02:56:07;2.50;;;1.20;;
11247;SDS011;5681;53.316;13.950;2022-09-01T02:58:38;2.72;;;1.50;;
11247;SDS011;5681;53.316;13.950;2022-09-01T03:01:10;3.28;;;1.20;;
11247;SDS011;5681;53.316;13.950;2022-09-01T03:03:37;3.28;;;1.52;;
11247;SDS011;5681;53.316;13.950;2022-09-01T03:06:05;2.10;;;1.30;;
11247;SDS011;5681;53.316;13.950;2022-09-01T03:08:33;2.53;;;1.75;;
11247;SDS011;5681;53.316;13.950;2022-09-01T03:11:00;2.10;;;1.60;;
11247;SDS011;5681;53.316;13.950;2022-09-01T03:13:27;2.67;;;1.80;;
11247;SDS011;5681;53.316;13.950;2022-09-01T03:15:55;3.75;;;1.60;;
11247;SDS011;5681;53.316;13.950;2022-09-01T03:18:21;2.40;;;1.70;;
11247;SDS011;5681;53.316;13.950;2022-09-01T03:20:47;1.85;;;1.65;;
11247;SDS011;5681;53.316;13.950;2022-09-01T03:23:18;2.08;;;1.58;;
11247;SDS011;5681;53.316;13.950;2022-09-01T03:25:45;1.80;;;1.70;;
11247;SDS011;5681;53.316;13.950;2022-09-01T03:28:14;1.77;;;1.60;;
11247;SDS011;5681;53.316;13.950;2022-09-01T03:30:43;1.80;;;1.70;;
11247;SDS011;5681;53.316;13.950;2022-09-01T03:33:11;2.45;;;2.05;;
11247;SDS011;5681;53.316;13.950;2022-09-01T03:35:37;2.88;;;2.20;;
11247;SDS011;5681;53.316;13.950;2022-09-01T03:38:04;2.30;;;1.80;;
11247;SDS011;5681;53.316;13.950;2022-09-01T03:40:32;1.80;;;1.70;;
11247;SDS011;5681;53.316;13.950;2022-09-01T03:43:01;2.53;;;1.98;;
11247;SDS011;5681;53.316;13.950;2022-09-01T03:45:29;4.22;;;2.10;;
11247;SDS011;5681;53.316;13.950;2022-09-01T03:48:00;5.75;;;1.77;;
11247;SDS011;5681;53.316;13.950;2022-09-01T03:50:30;2.92;;;1.63;;
11247;SDS011;5681;53.316;13.950;2022-09-01T03:52:58;3.13;;;1.90;;
11247;SDS011;5681;53.316;13.950;2022-09-01T03:55:26;2.13;;;1.75;;
11247;SDS011;5681;53.316;13.950;2022-09-01T03:57:57;2.65;;;1.70;;
11247;SDS011;5681;53.316;13.950;2022-09-01T04:00:26;2.65;;;1.70;;
11247;SDS011;5681;53.316;13.950;2022-09-01T04:02:56;1.75;;;1.63;;
11247;SDS011;5681;53.316;13.950;2022-09-01T04:05:25;1.60;;;1.50;;
11247;SDS011;5681;53.316;13.950;2022-09-01T04:07:53;2.78;;;1.45;;
11247;SDS011;5681;53.316;13.950;2022-09-01T04:10:20;2.30;;;1.70;;
11247;SDS011;5681;53.316;13.950;2022-09-01T04:12:47;3.90;;;1.60;;
11247;SDS011;5681;53.316;13.950;2022-09-01T04:15:15;1.77;;;1.63;;
11247;SDS011;5681;53.316;13.950;2022-09-01T04:17:42;3.38;;;2.50;;
11247;SDS011;5681;53.316;13.950;2022-09-01T04:20:25;6.05;;;4.80;;
11247;SDS011;5681;53.316;13.950;2022-09-01T04:22:53;5.95;;;4.13;;
11247;SDS011;5681;53.316;13.950;2022-09-01T04:25:21;5.18;;;2.70;;
11247;SDS011;5681;53.316;13.950;2022-09-01T04:27:49;2.63;;;1.90;;
11247;SDS011;5681;53.316;13.950;2022-09-01T04:30:19;4.47;;;1.92;;
11247;SDS011;5681;53.316;13.950;2022-09-01T04:32:48;2.85;;;1.75;;
11247;SDS011;5681;53.316;13.950;2022-09-01T04:35:16;2.90;;;2.10;;
11247;SDS011;5681;53.316;13.950;2022-09-01T04:37:43;3.08;;;2.03;;
11247;SDS011;5681;53.316;13.950;2022-09-01T04:40:11;3.28;;;1.83;;
11247;SDS011;5681;53.316;13.950;2022-09-01T04:42:39;4.85;;;1.80;;
11247;SDS011;5681;53.316;13.950;2022-09-01T04:45:07;2.00;;;1.60;;
11247;SDS011;5681;53.316;13.950;2022-09-01T04:47:39;2.42;;;1.58;;
11247;SDS011;5681;53.316;13.950;2022-09-01T04:50:07;2.75;;;1.80;;
11247;SDS011;5681;53.316;13.950;2022-09-01T04:52:38;2.10;;;1.55;;
11247;SDS011;5681;53.316;13.950;2022-09-01T04:55:06;2.15;;;1.95;;
11247;SDS011;5681;53.316;13.950;2022-09-01T04:57:33;2.30;;;2.03;;
11247;SDS011;5681;53.316;13.950;2022-09-01T05:00:00;2.17;;;1.70;;
11247;SDS011;5681;53.316;13.950;2022-09-01T05:02:27;2.42;;;1.70;;
11247;SDS011;5681;53.316;13.950;2022-09-01T05:04:54;2.10;;;1.65;;
11247;SDS011;5681;53.316;13.950;2022-09-01T05:07:22;1.80;;;1.63;;
11247;SDS011;5681;53.316;13.950;2022-09-01T05:09:49;4.10;;;1.52;;
11247;SDS011;5681;53.316;13.950;2022-09-01T05:12:18;4.70;;;1.90;;
11247;SDS011;5681;53.316;13.950;2022-09-01T05:14:47;3.90;;;1.95;;
11247;SDS011;5681;53.316;13.950;2022-09-01T05:17:13;3.78;;;1.90;;
11247;SDS011;5681;53.316;13.950;2022-09-01T05:19:42;2.83;;;1.58;;
11247;SDS011;5681;53.316;13.950;2022-09-01T05:22:13;2.80;;;2.05;;
11247;SDS011;5681;53.316;13.950;2022-09-01T05:24:40;1.90;;;1.70;;
11247;SDS011;5681;53.316;13.950;2022-09-01T05:27:06;1.92;;;1.60;;
11247;SDS011;5681;53.316;13.950;2022-09-01T05:29:34;3.78;;;2.03;;
11247;SDS011;5681;53.316;13.950;2022-09-01T05:32:02;2.10;;;1.75;;
11247;SDS011;5681;53.316;13.950;2022-09-01T05:34:34;2.58;;;1.70;;
11247;SDS011;5681;53.316;13.950;2022-09-01T05:37:02;5.20;;;2.20;;
11247;SDS011;5681;53.316;13.950;2022-09-01T05:39:31;5.38;;;1.92;;
11247;SDS011;5681;53.316;13.950;2022-09-01T05:41:59;4.55;;;1.90;;
11247;SDS011;5681;53.316;13.950;2022-09-01T05:44:28;2.70;;;1.70;;
11247;SDS011;5681;53.316;13.950;2022-09-01T05:46:57;2.35;;;1.52;;
11247;SDS011;5681;53.316;13.950;2022-09-01T05:49:23;2.53;;;1.70;;
11247;SDS011;5681;53.316;13.950;2022-09-01T05:51:50;5.30;;;1.70;;
11247;SDS011;5681;53.316;13.950;2022-09-01T05:54:22;2.40;;;1.58;;
11247;SDS011;5681;53.316;13.950;2022-09-01T05:56:50;3.58;;;1.90;;
11247;SDS011;5681;53.316;13.950;2022-09-01T05:59:17;2.67;;;1.65;;
11247;SDS011;5681;53.316;13.950;2022-09-01T06:01:45;2.70;;;1.50;;
11247;SDS011;5681;53.316;13.950;2022-09-01T06:04:12;2.10;;;1.58;;
11247;SDS011;5681;53.316;13.950;2022-09-01T06:06:41;3.90;;;1.70;;
11247;SDS011;5681;53.316;13.950;2022-09-01T06:09:11;5.88;;;1.75;;
11247;SDS011;5681;53.316;13.950;2022-09-01T06:11:38;5.13;;;2.85;;
11247;SDS011;5681;53.316;13.950;2022-09-01T06:14:07;3.78;;;2.17;;
11247;SDS011;5681;53.316;13.950;2022-09-01T06:16:35;5.90;;;1.70;;
11247;SDS011;5681;53.316;13.950;2022-09-01T06:19:02;2.20;;;1.50;;
11247;SDS011;5681;53.316;13.950;2022-09-01T06:21:29;8.02;;;1.58;;
11247;SDS011;5681;53.316;13.950;2022-09-01T06:23:56;2.00;;;1.40;;
11247;SDS011;5681;53.316;13.950;2022-09-01T06:26:24;2.53;;;1.70;;
11247;SDS011;5681;53.316;13.950;2022-09-01T06:28:53;2.03;;;1.38;;
11247;SDS011;5681;53.316;13.950;2022-09-01T06:31:21;3.30;;;1.60;;
11247;SDS011;5681;53.316;13.950;2022-09-01T06:33:48;5.43;;;1.65;;
11247;SDS011;5681;53.316;13.950;2022-09-01T06:36:17;2.15;;;1.60;;
11247;SDS011;5681;53.316;13.950;2022-09-01T06:38:45;2.78;;;1.60;;
11247;SDS011;5681;53.316;13.950;2022-09-01T06:41:13;2.42;;;1.60;;
11247;SDS011;5681;53.316;13.950;2022-09-01T06:43:39;2.72;;;1.58;;
11247;SDS011;5681;53.316;13.950;2022-09-01T06:46:06;6.80;;;1.90;;
11247;SDS011;5681;53.316;13.950;2022-09-01T06:48:35;2.40;;;1.80;;
11247;SDS011;5681;53.316;13.950;2022-09-01T06:51:02;2.10;;;1.60;;
11247;SDS011;5681;53.316;13.950;2022-09-01T06:53:29;3.55;;;1.85;;
11247;SDS011;5681;53.316;13.950;2022-09-01T06:55:58;6.50;;;2.10;;
11247;SDS011;5681;53.316;13.950;2022-09-01T06:58:24;2.38;;;1.90;;
11247;SDS011;5681;53.316;13.950;2022-09-01T07:00:51;4.68;;;1.85;;
11247;SDS011;5681;53.316;13.950;2022-09-01T07:03:18;5.47;;;1.75;;
11247;SDS011;5681;53.316;13.950;2022-09-01T07:05:46;2.55;;;1.83;;
11247;SDS011;5681;53.316;13.950;2022-09-01T07:08:13;4.55;;;1.98;;
11247;SDS011;5681;53.316;13.950;2022-09-01T07:10:43;2.55;;;1.33;;
11247;SDS011;5681;53.316;13.950;2022-09-01T07:13:12;4.25;;;1.48;;
11247;SDS011;5681;53.316;13.950;2022-09-01T07:15:44;2.33;;;1.27;;
11247;SDS011;5681;53.316;13.950;2022-09-01T07:18:12;2.35;;;1.20;;
11247;SDS011;5681;53.316;13.950;2022-09-01T07:20:41;2.42;;;1.38;;
11247;SDS011;5681;53.316;13.950;2022-09-01T07:23:09;2.55;;;1.20;;
11247;SDS011;5681;53.316;13.950;2022-09-01T07:25:37;2.00;;;1.20;;
11247;SDS011;5681;53.316;13.950;2022-09-01T07:28:06;3.95;;;1.40;;
11247;SDS011;5681;53.316;13.950;2022-09-01T07:30:32;1.83;;;1.35;;
11247;SDS011;5681;53.316;13.950;2022-09-01T07:32:59;4.05;;;1.30;;
11247;SDS011;5681;53.316;13.950;2022-09-01T07:35:25;4.07;;;1.20;;
11247;SDS011;5681;53.316;13.950;2022-09-01T07:37:52;3.05;;;1.60;;
11247;SDS011;5681;53.316;13.950;2022-09-01T07:40:21;3.67;;;1.27;;
11247;SDS011;5681;53.316;13.950;2022-09-01T07:42:53;2.80;;;1.42;;
11247;SDS011;5681;53.316;13.950;2022-09-01T07:45:21;2.38;;;1.20;;
11247;SDS011;5681;53.316;13.950;2022-09-01T07:47:47;4.28;;;1.80;;
11247;SDS011;5681;53.316;13.950;2022-09-01T07:50:14;3.03;;;2.00;;
11247;SDS011;5681;53.316;13.950;2022-09-01T07:52:42;6.07;;;2.05;;
11247;SDS011;5681;53.316;13.950;2022-09-01T07:55:08;4.22;;;2.10;;
11247;SDS011;5681;53.316;13.950;2022-09-01T07:57:37;4.10;;;1.65;;
11247;SDS011;5681;53.316;13.950;2022-09-01T08:00:07;2.75;;;1.92;;
11247;SDS011;5681;53.316;13.950;2022-09-01T08:02:35;4.25;;;1.75;;
11247;SDS011;5681;53.316;13.950;2022-09-01T08:05:03;3.25;;;1.70;;
11247;SDS011;5681;53.316;13.950;2022-09-01T08:07:31;2.75;;;1.70;;
11247;SDS011;5681;53.316;13.950;2022-09-01T08:09:58;2.25;;;1.50;;
11247;SDS011;5681;53.316;13.950;2022-09-01T08:12:24;3.50;;;1.60;;
11247;SDS011;5681;53.316;13.950;2022-09-01T08:14:52;1.40;;;1.30;;
11247;SDS011;5681;53.316;13.950;2022-09-01T08:17:18;2.20;;;1.50;;
11247;SDS011;5681;53.316;13.950;2022-09-01T08:19:45;2.10;;;1.20;;
11247;SDS011;5681;53.316;13.950;2022-09-01T08:22:11;1.27;;;0.98;;
11247;SDS011;5681;53.316;13.950;2022-09-01T08:24:38;3.97;;;0.98;;
11247;SDS011;5681;53.316;13.950;2022-09-01T08:27:04;1.92;;;1.00;;
11247;SDS011;5681;53.316;13.950;2022-09-01T08:29:30;1.52;;;0.93;;
11247;SDS011;5681;53.316;13.950;2022-09-01T08:31:58;4.18;;;0.90;;
11247;SDS011;5681;53.316;13.950;2022-09-01T08:34:26;2.15;;;1.10;;
11247;SDS011;5681;53.316;13.950;2022-09-01T08:36:53;0.98;;;0.60;;
11247;SDS011;5681;53.316;13.950;2022-09-01T08:39:19;1.52;;;0.80;;
11247;SDS011;5681;53.316;13.950;2022-09-01T08:41:46;0.90;;;0.70;;
11247;SDS011;5681;53.316;13.950;2022-09-01T08:44:20;1.08;;;0.80;;
11247;SDS011;5681;53.316;13.950;2022-09-01T08:46:53;0.95;;;0.70;;
11247;SDS011;5681;53.316;13.950;2022-09-01T08:49:24;1.08;;;0.80;;
11247;SDS011;5681;53.316;13.950;2022-09-01T08:51:52;1.10;;;0.82;;
11247;SDS011;5681;53.316;13.950;2022-09-01T08:54:20;1.08;;;0.80;;
11247;SDS011;5681;53.316;13.950;2022-09-01T08:56:50;2.28;;;0.90;;
11247;SDS011;5681;53.316;13.950;2022-09-01T08:59:18;2.42;;;0.73;;
11247;SDS011;5681;53.316;13.950;2022-09-01T09:01:47;1.65;;;0.77;;
11247;SDS011;5681;53.316;13.950;2022-09-01T09:04:23;3.13;;;0.68;;
11247;SDS011;5681;53.316;13.950;2022-09-01T09:06:57;0.70;;;0.60;;
11247;SDS011;5681;53.316;13.950;2022-09-01T09:09:29;1.25;;;0.52;;
11247;SDS011;5681;53.316;13.950;2022-09-01T09:12:05;1.33;;;0.80;;
11247;SDS011;5681;53.316;13.950;2022-09-01T09:14:43;1.73;;;0.60;;
11247;SDS011;5681;53.316;13.950;2022-09-01T09:17:15;1.13;;;0.60;;
11247;SDS011;5681;53.316;13.950;2022-09-01T09:19:46;1.23;;;0.57;;
11247;SDS011;5681;53.316;13.950;2022-09-01T09:22:13;1.33;;;0.60;;
11247;SDS011;5681;53.316;13.950;2022-09-01T09:24:43;1.15;;;0.63;;
11247;SDS011;5681;53.316;13.950;2022-09-01T09:27:15;3.28;;;0.90;;
11247;SDS011;5681;53.316;13.950;2022-09-01T09:29:44;0.50;;;0.47;;
11247;SDS011;5681;53.316;13.950;2022-09-01T09:32:11;0.63;;;0.57;;
11247;SDS011;5681;53.316;13.950;2022-09-01T09:34:38;2.30;;;0.65;;
11247;SDS011;5681;53.316;13.950;2022-09-01T09:37:17;1.65;;;0.70;;
11247;SDS011;5681;53.316;13.950;2022-09-01T09:39:58;1.73;;;0.90;;
11247;SDS011;5681;53.316;13.950;2022-09-01T09:42:27;0.73;;;0.63;;
11247;SDS011;5681;53.316;13.950;2022-09-01T09:44:54;2.90;;;1.00;;
11247;SDS011;5681;53.316;13.950;2022-09-01T09:47:32;1.35;;;0.93;;
11247;SDS011;5681;53.316;13.950;2022-09-01T09:50:10;3.10;;;0.70;;
11247;SDS011;5681;53.316;13.950;2022-09-01T09:52:40;2.13;;;0.93;;
11247;SDS011;5681;53.316;13.950;2022-09-01T09:55:17;1.98;;;1.10;;
11247;SDS011;5681;53.316;13.950;2022-09-01T09:57:46;2.55;;;0.80;;
11247;SDS011;5681;53.316;13.950;2022-09-01T10:00:17;3.10;;;1.00;;
11247;SDS011;5681;53.316;13.950;2022-09-01T10:02:45;3.92;;;0.80;;
11247;SDS011;5681;53.316;13.950;2022-09-01T10:05:21;1.10;;;0.80;;
11247;SDS011;5681;53.316;13.950;2022-09-01T10:07:52;1.33;;;0.75;;
11247;SDS011;5681;53.316;13.950;2022-09-01T10:10:30;1.08;;;0.68;;
11247;SDS011;5681;53.316;13.950;2022-09-01T10:13:02;2.20;;;0.90;;
11247;SDS011;5681;53.316;13.950;2022-09-01T10:15:30;1.35;;;0.80;;
11247;SDS011;5681;53.316;13.950;2022-09-01T10:17:59;1.55;;;0.80;;
11247;SDS011;5681;53.316;13.950;2022-09-01T10:20:29;1.58;;;0.80;;
11247;SDS011;5681;53.316;13.950;2022-09-01T10:22:57;6.53;;;1.10;;
11247;SDS011;5681;53.316;13.950;2022-09-01T10:25:25;1.15;;;0.93;;
11247;SDS011;5681;53.316;13.950;2022-09-01T10:27:53;2.70;;;0.52;;
11247;SDS011;5681;53.316;13.950;2022-09-01T10:30:22;2.97;;;0.70;;
11247;SDS011;5681;53.316;13.950;2022-09-01T10:32:50;0.75;;;0.63;;
11247;SDS011;5681;53.316;13.950;2022-09-01T10:35:19;1.63;;;0.75;;
11247;SDS011;5681;53.316;13.950;2022-09-01T10:37:48;2.40;;;0.80;;
11247;SDS011;5681;53.316;13.950;2022-09-01T10:40:18;1.48;;;0.75;;
11247;SDS011;5681;53.316;13.950;2022-09-01T10:43:21;0.65;;;0.60;;
11247;SDS011;5681;53.316;13.950;2022-09-01T10:45:51;0.93;;;0.77;;
11247;SDS011;5681;53.316;13.950;2022-09-01T10:48:21;2.10;;;0.75;;
11247;SDS011;5681;53.316;13.950;2022-09-01T10:50:49;1.20;;;0.82;;
11247;SDS011;5681;53.316;13.950;2022-09-01T10:56:06;0.88;;;0.60;;
11247;SDS011;5681;53.316;13.950;2022-09-01T10:58:42;1.77;;;0.60;;
11247;SDS011;5681;53.316;13.950;2022-09-01T11:01:15;1.65;;;0.90;;
11247;SDS011;5681;53.316;13.950;2022-09-01T11:06:33;0.57;;;0.57;;
11247;SDS011;5681;53.316;13.950;2022-09-01T11:09:33;0.60;;;0.60;;
11247;SDS011;5681;53.316;13.950;2022-09-01T11:12:07;0.77;;;0.52;;
11247;SDS011;5681;53.316;13.950;2022-09-01T11:14:45;1.33;;;0.60;;
11247;SDS011;5681;53.316;13.950;2022-09-01T11:17:15;3.58;;;0.60;;
11247;SDS011;5681;53.316;13.950;2022-09-01T11:19:44;3.28;;;0.70;;
11247;SDS011;5681;53.316;13.950;2022-09-01T11:22:28;3.15;;;0.70;;
11247;SDS011;5681;53.316;13.950;2022-09-01T11:25:15;1.55;;;0.52;;
11247;SDS011;5681;53.316;13.950;2022-09-01T11:28:00;0.98;;;0.65;;
11247;SDS011;5681;53.316;13.950;2022-09-01T11:30:38;1.70;;;0.70;;
11247;SDS011;5681;53.316;13.950;2022-09-01T11:33:18;1.33;;;0.70;;
11247;SDS011;5681;53.316;13.950;2022-09-01T11:35:56;1.08;;;0.68;;
11247;SDS011;5681;53.316;13.950;2022-09-01T11:38:24;1.08;;;0.60;;
11247;SDS011;5681;53.316;13.950;2022-09-01T11:40:53;0.80;;;0.57;;
11247;SDS011;5681;53.316;13.950;2022-09-01T11:43:22;0.57;;;0.50;;
11247;SDS011;5681;53.316;13.950;2022-09-01T11:45:52;4.63;;;0.60;;
11247;SDS011;5681;53.316;13.950;2022-09-01T11:48:23;1.65;;;0.73;;
11247;SDS011;5681;53.316;13.950;2022-09-01T11:50:56;0.88;;;0.60;;
11247;SDS011;5681;53.316;13.950;2022-09-01T11:53:23;0.82;;;0.60;;
11247;SDS011;5681;53.316;13.950;2022-09-01T11:55:51;4.03;;;0.68;;
11247;SDS011;5681;53.316;13.950;2022-09-01T11:58:29;2.15;;;0.70;;
11247;SDS011;5681;53.316;13.950;2022-09-01T12:01:10;2.67;;;0.60;;
11247;SDS011;5681;53.316;13.950;2022-09-01T12:03:38;0.98;;;0.55;;
11247;SDS011;5681;53.316;13.950;2022-09-01T12:06:06;1.52;;;0.70;;
11247;SDS011;5681;53.316;13.950;2022-09-01T12:08:34;1.65;;;0.60;;
11247;SDS011;5681;53.316;13.950;2022-09-01T12:11:02;1.58;;;0.60;;
11247;SDS011;5681;53.316;13.950;2022-09-01T12:13:32;1.50;;;0.70;;
11247;SDS011;5681;53.316;13.950;2022-09-01T12:15:59;1.33;;;0.60;;
11247;SDS011;5681;53.316;13.950;2022-09-01T12:18:29;0.73;;;0.50;;
11247;SDS011;5681;53.316;13.950;2022-09-01T12:20:57;1.33;;;0.60;;
11247;SDS011;5681;53.316;13.950;2022-09-01T12:23:27;0.80;;;0.40;;
11247;SDS011;5681;53.316;13.950;2022-09-01T12:25:55;2.13;;;0.50;;
11247;SDS011;5681;53.316;13.950;2022-09-01T12:28:23;1.52;;;0.80;;
11247;SDS011;5681;53.316;13.950;2022-09-01T12:30:51;1.35;;;0.80;;
11247;SDS011;5681;53.316;13.950;2022-09-01T12:33:19;1.25;;;0.70;;
11247;SDS011;5681;53.316;13.950;2022-09-01T12:35:46;1.27;;;0.70;;
11247;SDS011;5681;53.316;13.950;2022-09-01T12:40:57;2.20;;;0.60;;
11247;SDS011;5681;53.316;13.950;2022-09-01T12:43:30;2.65;;;0.70;;
11247;SDS011;5681;53.316;13.950;2022-09-01T12:46:00;0.95;;;0.63;;
11247;SDS011;5681;53.316;13.950;2022-09-01T12:48:29;1.27;;;0.47;;
11247;SDS011;5681;53.316;13.950;2022-09-01T12:50:57;3.55;;;0.70;;
11247;SDS011;5681;53.316;13.950;2022-09-01T12:53:27;1.45;;;0.65;;
11247;SDS011;5681;53.316;13.950;2022-09-01T12:56:00;2.85;;;0.60;;
11247;SDS011;5681;53.316;13.950;2022-09-01T12:58:29;1.67;;;0.60;;
11247;SDS011;5681;53.316;13.950;2022-09-01T13:00:58;0.88;;;0.57;;
11247;SDS011;5681;53.316;13.950;2022-09-01T13:03:29;3.00;;;0.70;;
11247;SDS011;5681;53.316;13.950;2022-09-01T13:05:56;1.30;;;0.70;;
11247;SDS011;5681;53.316;13.950;2022-09-01T13:08:24;2.78;;;0.50;;
11247;SDS011;5681;53.316;13.950;2022-09-01T13:10:52;1.90;;;0.80;;
11247;SDS011;5681;53.316;13.950;2022-09-01T13:13:20;0.57;;;0.50;;
11247;SDS011;5681;53.316;13.950;2022-09-01T13:15:49;1.38;;;0.47;;
11247;SDS011;5681;53.316;13.950;2022-09-01T13:18:19;0.90;;;0.57;;
11247;SDS011;5681;53.316;13.950;2022-09-01T13:20:46;2.83;;;0.70;;
11247;SDS011;5681;53.316;13.950;2022-09-01T13:23:13;0.77;;;0.55;;
11247;SDS011;5681;53.316;13.950;2022-09-01T13:25:40;1.45;;;0.60;;
11247;SDS011;5681;53.316;13.950;2022-09-01T13:28:08;0.95;;;0.65;;
11247;SDS011;5681;53.316;13.950;2022-09-01T13:30:34;4.78;;;0.95;;
11247;SDS011;5681;53.316;13.950;2022-09-01T13:33:01;0.60;;;0.55;;
11247;SDS011;5681;53.316;13.950;2022-09-01T13:35:28;2.40;;;0.70;;
11247;SDS011;5681;53.316;13.950;2022-09-01T13:37:55;0.70;;;0.50;;
11247;SDS011;5681;53.316;13.950;2022-09-01T13:40:21;0.77;;;0.30;;
11247;SDS011;5681;53.316;13.950;2022-09-01T13:42:49;2.35;;;0.50;;
11247;SDS011;5681;53.316;13.950;2022-09-01T13:45:17;0.70;;;0.60;;
11247;SDS011;5681;53.316;13.950;2022-09-01T13:47:44;0.88;;;0.52;;
11247;SDS011;5681;53.316;13.950;2022-09-01T13:50:13;2.92;;;0.60;;
11247;SDS011;5681;53.316;13.950;2022-09-01T13:52:44;2.00;;;0.80;;
11247;SDS011;5681;53.316;13.950;2022-09-01T13:55:12;2.78;;;0.57;;
11247;SDS011;5681;53.316;13.950;2022-09-01T13:57:39;2.28;;;0.40;;
11247;SDS011;5681;53.316;13.950;2022-09-01T14:00:07;1.70;;;0.60;;
11247;SDS011;5681;53.316;13.950;2022-09-01T14:02:35;2.60;;;0.47;;
11247;SDS011;5681;53.316;13.950;2022-09-01T14:05:02;0.65;;;0.50;;
11247;SDS011;5681;53.316;13.950;2022-09-01T14:07:29;1.52;;;0.60;;
11247;SDS011;5681;53.316;13.950;2022-09-01T14:09:57;0.80;;;0.50;;
11247;SDS011;5681;53.316;13.950;2022-09-01T14:12:24;0.90;;;0.60;;
11247;SDS011;5681;53.316;13.950;2022-09-01T14:14:50;0.90;;;0.50;;
11247;SDS011;5681;53.316;13.950;2022-09-01T14:17:16;0.93;;;0.68;;
11247;SDS011;5681;53.316;13.950;2022-09-01T14:19:47;3.17;;;0.50;;
11247;SDS011;5681;53.316;13.950;2022-09-01T14:22:14;2.00;;;0.60;;
11247;SDS011;5681;53.316;13.950;2022-09-01T14:24:40;2.13;;;0.50;;
11247;SDS011;5681;53.316;13.950;2022-09-01T14:27:09;1.10;;;0.57;;
11247;SDS011;5681;53.316;13.950;2022-09-01T14:29:36;3.05;;;0.70;;
11247;SDS011;5681;53.316;13.950;2022-09-01T14:32:02;0.73;;;0.55;;
11247;SDS011;5681;53.316;13.950;2022-09-01T14:34:31;1.20;;;0.50;;
11247;SDS011;5681;53.316;13.950;2022-09-01T14:36:58;4.80;;;0.63;;
11247;SDS011;5681;53.316;13.950;2022-09-01T14:39:24;1.38;;;0.50;;
11247;SDS011;5681;53.316;13.950;2022-09-01T14:41:51;2.25;;;0.50;;
11247;SDS011;5681;53.316;13.950;2022-09-01T14:44:19;1.45;;;0.60;;
11247;SDS011;5681;53.316;13.950;2022-09-01T14:46:45;0.60;;;0.50;;
11247;SDS011;5681;53.316;13.950;2022-09-01T14:49:11;3.00;;;0.70;;
11247;SDS011;5681;53.316;13.950;2022-09-01T14:51:39;7.00;;;0.80;;
11247;SDS011;5681;53.316;13.950;2022-09-01T14:54:06;1.20;;;1.00;;
11247;SDS011;5681;53.316;13.950;2022-09-01T14:56:32;1.02;;;0.70;;
11247;SDS011;5681;53.316;13.950;2022-09-01T14:58:58;2.53;;;0.70;;
11247;SDS011;5681;53.316;13.950;2022-09-01T15:01:27;1.60;;;0.77;;
11247;SDS011;5681;53.316;13.950;2022-09-01T15:03:53;1.20;;;0.65;;
11247;SDS011;5681;53.316;13.950;2022-09-01T15:06:20;3.58;;;0.55;;